Time;durP1;ratioP1;P1;durP2;ratioP2;P2;SDS_P1;SDS_P2;PMS_P1;PMS_P2;Temp;Humidity;BMP_temperature;BMP_pressure;BME280_temperature;BME280_humidity;BME280_pressure;Samples;Min_cycle;Max_cycle;Signal;HPM_P1;HPM_P2
2022/01/31 00:00:58;;;;;;;18.88;6.72;;;0.60;99.90;;;;;;5055659;28;20036;-78
2022/01/31 00:03:24;;;;;;;19.40;7.28;;;0.60;99.90;;;;;;5055679;28;20040;-77
2022/01/31 00:05:50;;;;;;;17.20;6.43;;;0.70;99.90;;;;;;5054433;28;20048;-77
2022/01/31 00:08:21;;;;;;;10.30;5.60;;;0.80;99.90;;;;;;5055210;28;20024;-76
2022/01/31 00:10:48;;;;;;;14.32;5.75;;;0.90;99.90;;;;;;5053703;28;20036;-77
2022/01/31 00:13:20;;;;;;;17.30;5.90;;;1.10;99.90;;;;;;5054281;28;20051;-77
2022/01/31 00:15:52;;;;;;;11.50;5.50;;;0.80;99.90;;;;;;5055486;28;20032;-77
2022/01/31 00:18:18;;;;;;;16.52;4.43;;;0.90;99.90;;;;;;5055036;28;20108;-77
2022/01/31 00:20:44;;;;;;;12.50;5.60;;;1.10;99.90;;;;;;5053204;28;20068;-77
2022/01/31 00:23:09;;;;;;;11.73;4.78;;;1.30;99.90;;;;;;5053539;28;20032;-77
2022/01/31 00:25:35;;;;;;;13.90;4.22;;;1.30;99.90;;;;;;5033366;28;20057;-77
2022/01/31 00:28:01;;;;;;;19.17;4.13;;;1.40;99.90;;;;;;5035005;28;20088;-77
2022/01/31 00:30:27;;;;;;;15.00;4.13;;;1.40;99.90;;;;;;5044285;28;20112;-77
2022/01/31 00:32:52;;;;;;;66.22;35.75;;;1.50;99.90;;;;;;5053657;28;20086;-77
2022/01/31 00:35:18;;;;;;;17.25;6.18;;;3.40;99.90;;;;;;5053661;28;20378;-77
2022/01/31 00:37:44;;;;;;;26.13;11.20;;;1.50;99.90;;;;;;5052024;28;20371;-77
2022/01/31 00:40:11;;;;;;;22.90;7.65;;;1.40;99.90;;;;;;5053631;28;20044;-76
2022/01/31 00:42:37;;;;;;;12.63;4.68;;;1.40;99.90;;;;;;5054224;28;20064;-77
2022/01/31 00:47:39;;;;;;;15.32;4.63;;;1.50;99.90;;;;;;5054695;28;20025;-77
2022/01/31 00:50:08;;;;;;;14.20;5.00;;;1.50;99.90;;;;;;5056712;28;20013;-77
2022/01/31 00:52:35;;;;;;;17.17;4.60;;;1.60;99.90;;;;;;5056440;28;20025;-77
2022/01/31 00:55:01;;;;;;;14.18;5.57;;;1.50;99.90;;;;;;5054074;28;20026;-77
2022/01/31 00:57:27;;;;;;;19.45;4.80;;;1.70;99.90;;;;;;5054320;28;20060;-77
2022/01/31 00:59:53;;;;;;;13.95;5.03;;;1.60;99.90;;;;;;5053485;28;20069;-77
2022/01/31 01:02:19;;;;;;;11.60;5.03;;;2.70;99.90;;;;;;5053022;28;20116;-77
2022/01/31 01:04:45;;;;;;;13.88;5.00;;;2.10;99.90;;;;;;5052977;28;20029;-76
2022/01/31 01:07:11;;;;;;;15.48;5.53;;;1.70;99.90;;;;;;5036407;28;20393;-77
2022/01/31 01:09:37;;;;;;;14.98;5.97;;;3.70;99.90;;;;;;5051776;28;20104;-77
2022/01/31 01:12:04;;;;;;;20.40;6.50;;;1.80;99.90;;;;;;5054023;28;20151;-77
2022/01/31 01:14:31;;;;;;;21.65;6.20;;;;;;;;;;5052668;28;20041;-77
2022/01/31 01:16:57;;;;;;;16.05;6.60;;;;;;;;;;5054173;28;20033;-77
2022/01/31 01:19:23;;;;;;;21.52;7.95;;;;;;;;;;5054303;28;20083;-77
2022/01/31 01:21:49;;;;;;;16.70;6.07;;;;;;;;;;5055277;28;20040;-76
2022/01/31 01:24:15;;;;;;;18.67;6.30;;;;;;;;;;5055164;28;20103;-77
2022/01/31 01:26:42;;;;;;;17.77;6.43;;;1.80;99.90;;;;;;5053720;28;20017;-77
2022/01/31 01:29:07;;;;;;;22.92;7.05;;;1.80;99.90;;;;;;5053009;28;20031;-77
2022/01/31 01:31:33;;;;;;;20.15;7.78;;;1.90;99.90;;;;;;5053466;28;20021;-77
2022/01/31 01:33:59;;;;;;;14.30;6.38;;;1.80;99.90;;;;;;5053625;28;20032;-76
2022/01/31 01:36:24;;;;;;;18.05;6.55;;;1.60;99.90;;;;;;5053853;28;20453;-77
2022/01/31 01:38:50;;;;;;;16.35;6.70;;;1.70;99.90;;;;;;5053317;28;20063;-75
2022/01/31 01:41:16;;;;;;;18.45;7.07;;;1.80;99.90;;;;;;5053717;28;20421;-77
2022/01/31 01:43:42;;;;;;;25.08;7.00;;;1.80;99.90;;;;;;5055294;28;20053;-77
2022/01/31 01:46:08;;;;;;;22.10;6.93;;;1.70;99.90;;;;;;5052247;28;20103;-77
2022/01/31 01:48:33;;;;;;;19.58;6.97;;;1.70;99.90;;;;;;5052152;28;20040;-76
2022/01/31 01:51:00;;;;;;;14.45;6.07;;;1.80;99.90;;;;;;5053370;28;20029;-76
2022/01/31 01:53:26;;;;;;;17.55;6.60;;;1.70;99.90;;;;;;5053162;28;20021;-77
2022/01/31 01:55:53;;;;;;;16.20;6.50;;;1.80;99.90;;;;;;5052783;28;20377;-77
2022/01/31 01:58:21;;;;;;;20.90;5.75;;;3.00;99.90;;;;;;5052950;28;20025;-76
2022/01/31 02:00:58;;;;;;;21.17;7.05;;;1.70;99.90;;;;;;5052635;28;20095;-76
2022/01/31 02:03:27;;;;;;;20.80;6.82;;;1.90;99.90;;;;;;5051583;28;20039;-77
2022/01/31 02:05:52;;;;;;;14.27;5.95;;;2.70;99.90;;;;;;5052875;28;20367;-76
2022/01/31 02:08:19;;;;;;;18.17;5.30;;;1.70;99.90;;;;;;5052571;28;20115;-77
2022/01/31 02:10:45;;;;;;;18.50;6.40;;;1.80;99.90;;;;;;5050609;28;20084;-76
2022/01/31 02:13:12;;;;;;;17.52;6.07;;;1.80;99.90;;;;;;5051428;28;20579;-77
2022/01/31 02:15:39;;;;;;;16.30;6.22;;;1.90;99.90;;;;;;5052670;28;20028;-76
2022/01/31 02:18:06;;;;;;;16.77;6.05;;;2.90;99.90;;;;;;5051414;28;20053;-76
2022/01/31 02:20:37;;;;;;;28.02;6.05;;;1.90;99.90;;;;;;5051981;28;20028;-77
2022/01/31 02:23:06;;;;;;;18.85;6.65;;;1.90;99.90;;;;;;5052296;28;20027;-76
2022/01/31 02:25:32;;;;;;;17.90;6.05;;;1.90;99.90;;;;;;5032313;28;20090;-76
2022/01/31 02:27:57;;;;;;;18.95;5.47;;;2.00;99.90;;;;;;5049000;28;20484;-77
2022/01/31 02:30:23;;;;;;;15.52;6.05;;;2.00;99.90;;;;;;5050715;28;20497;-77
2022/01/31 02:32:48;;;;;;;17.60;5.28;;;3.30;99.90;;;;;;5052396;28;20040;-77
2022/01/31 02:35:14;;;;;;;17.65;5.10;;;2.10;99.90;;;;;;5050744;28;20485;-76
2022/01/31 02:37:40;;;;;;;13.82;5.07;;;2.20;99.90;;;;;;5052099;28;20116;-76
2022/01/31 02:40:06;;;;;;;13.18;4.22;;;2.20;99.90;;;;;;5051426;28;20563;-76
2022/01/31 02:42:32;;;;;;;12.88;4.95;;;2.30;99.90;;;;;;5052093;28;20029;-77
2022/01/31 02:44:57;;;;;;;14.30;4.57;;;2.40;99.90;;;;;;5051006;28;20048;-77
2022/01/31 02:47:32;;;;;;;17.33;4.35;;;2.30;99.90;;;;;;5052155;28;20052;-76
2022/01/31 02:50:01;;;;;;;8.35;4.00;;;2.40;99.90;;;;;;5049961;28;20493;-76
2022/01/31 02:52:31;;;;;;;15.40;3.60;;;2.60;99.90;;;;;;5051004;28;20108;-77
2022/01/31 02:54:57;;;;;;;10.60;3.20;;;2.80;99.90;;;;;;5052149;28;20013;-77
2022/01/31 02:57:23;;;;;;;11.43;2.92;;;3.00;99.90;;;;;;5050997;28;20099;-76
2022/01/31 02:59:49;;;;;;;13.50;3.35;;;4.90;99.90;;;;;;5050791;28;20104;-76
2022/01/31 03:02:16;;;;;;;19.23;3.90;;;3.20;99.90;;;;;;5051387;28;20051;-76
2022/01/31 03:04:41;;;;;;;11.38;3.28;;;3.10;99.90;;;;;;5050380;28;20033;-77
2022/01/31 03:07:07;;;;;;;11.13;3.47;;;3.40;99.90;;;;;;5052560;28;20505;-77
2022/01/31 03:09:33;;;;;;;5.43;2.60;;;3.50;99.90;;;;;;5052203;28;20036;-77
2022/01/31 03:11:59;;;;;;;12.73;2.60;;;3.60;99.90;;;;;;5051786;28;20029;-76
2022/01/31 03:14:25;;;;;;;13.02;3.20;;;5.20;99.90;;;;;;5050704;28;20025;-76
2022/01/31 03:16:51;;;;;;;9.95;2.88;;;3.60;99.90;;;;;;5050640;28;20021;-78
2022/01/31 03:19:18;;;;;;;12.50;3.20;;;3.70;99.90;;;;;;5051018;28;20036;-77
2022/01/31 03:21:45;;;;;;;9.50;2.92;;;3.70;99.90;;;;;;5051505;28;20131;-77
2022/01/31 03:24:12;;;;;;;12.13;3.15;;;3.70;99.90;;;;;;5051730;28;20033;-78
2022/01/31 03:26:39;;;;;;;8.80;2.90;;;4.80;99.90;;;;;;5033545;28;20618;-77
2022/01/31 03:29:04;;;;;;;9.57;2.67;;;4.00;99.90;;;;;;5049785;28;20033;-77
2022/01/31 03:31:31;;;;;;;11.63;2.85;;;3.90;99.90;;;;;;5051547;28;20028;-78
2022/01/31 03:33:57;;;;;;;11.07;3.42;;;4.00;99.90;;;;;;5051634;28;20463;-78
2022/01/31 03:36:23;;;;;;;10.57;2.80;;;4.00;99.90;;;;;;5051634;28;20036;-77
2022/01/31 03:38:50;;;;;;;8.13;2.45;;;5.40;99.90;;;;;;5049462;28;20393;-77
2022/01/31 03:41:21;;;;;;;12.00;2.60;;;4.00;99.90;;;;;;5051340;28;20025;-77
2022/01/31 03:43:46;;;;;;;11.07;2.70;;;4.10;99.90;;;;;;5051559;28;20116;-78
2022/01/31 03:46:12;;;;;;;10.25;2.50;;;4.30;99.90;;;;;;5051478;28;20170;-78
2022/01/31 03:48:38;;;;;;;9.65;2.45;;;4.20;99.90;;;;;;5033158;28;20083;-78
2022/01/31 03:51:05;;;;;;;11.18;2.50;;;4.50;99.90;;;;;;5051138;28;20409;-77
2022/01/31 03:53:31;;;;;;;8.77;2.30;;;4.30;99.90;;;;;;5051373;28;20061;-77
2022/01/31 03:55:57;;;;;;;10.90;2.67;;;4.40;99.90;;;;;;5051253;28;20397;-78
2022/01/31 03:58:23;;;;;;;12.02;3.10;;;4.30;99.90;;;;;;5050891;28;20078;-78
2022/01/31 04:00:49;;;;;;;7.60;2.30;;;4.40;99.90;;;;;;5051211;28;20029;-77
2022/01/31 04:03:15;;;;;;;10.02;3.00;;;4.40;99.90;;;;;;5052179;28;20025;-77
2022/01/31 04:05:41;;;;;;;8.25;2.17;;;4.50;99.90;;;;;;5052072;28;20346;-78
2022/01/31 04:08:08;;;;;;;10.80;2.75;;;4.60;99.90;;;;;;5051968;28;20032;-78
2022/01/31 04:10:34;;;;;;;8.18;1.85;;;4.50;99.90;;;;;;5051606;28;20036;-78
2022/01/31 04:13:00;;;;;;;9.77;2.47;;;4.50;99.90;;;;;;5074555;28;20056;-77
2022/01/31 04:15:26;;;;;;;8.10;2.33;;;5.40;99.90;;;;;;5054080;28;20473;-78
2022/01/31 04:17:51;;;;;;;12.57;3.20;;;4.60;99.90;;;;;;5054882;28;20029;-78
2022/01/31 04:20:18;;;;;;;7.70;2.03;;;4.70;99.90;;;;;;5052936;28;20075;-77
2022/01/31 04:22:55;;;;;;;6.32;2.15;;;4.60;99.90;;;;;;5055090;28;20029;-78
2022/01/31 04:25:29;;;;;;;9.55;2.45;;;5.40;99.90;;;;;;5053718;28;20103;-77
2022/01/31 04:28:04;;;;;;;6.20;1.88;;;4.80;99.90;;;;;;5055847;28;20398;-77
2022/01/31 04:30:38;;;;;;;9.68;2.72;;;4.70;99.90;;;;;;5052648;28;20044;-78
2022/01/31 04:33:04;;;;;;;12.95;2.28;;;6.00;99.90;;;;;;5054784;28;20028;-77
2022/01/31 04:35:30;;;;;;;9.02;2.30;;;4.80;99.90;;;;;;5054552;28;20074;-78
2022/01/31 04:37:58;;;;;;;10.27;2.10;;;4.60;99.90;;;;;;5054410;28;20028;-78
2022/01/31 04:40:24;;;;;;;10.15;2.88;;;4.60;99.90;;;;;;5052819;28;20024;-78
2022/01/31 04:42:49;;;;;;;10.50;2.03;;;4.70;99.90;;;;;;5054778;28;20544;-78
2022/01/31 04:45:16;;;;;;;11.93;1.90;;;4.60;99.90;;;;;;5054641;28;20025;-77
2022/01/31 04:47:41;;;;;;;13.65;3.08;;;4.70;99.90;;;;;;5054536;28;20025;-77
2022/01/31 04:50:07;;;;;;;10.02;2.63;;;6.20;99.90;;;;;;5053816;28;20033;-77
2022/01/31 04:52:33;;;;;;;8.90;2.55;;;4.60;99.90;;;;;;5054339;28;20025;-78
2022/01/31 04:54:59;;;;;;;10.10;2.47;;;4.80;99.90;;;;;;5054238;28;20100;-77
2022/01/31 04:57:24;;;;;;;5.82;1.85;;;6.00;99.90;;;;;;5052738;28;20040;-77
2022/01/31 04:59:51;;;;;;;8.98;2.40;;;5.20;99.90;;;;;;5052207;28;20083;-77
2022/01/31 05:02:17;;;;;;;8.77;2.83;;;5.20;99.90;;;;;;5053721;28;20060;-77
2022/01/31 05:04:42;;;;;;;9.20;2.55;;;5.70;99.90;;;;;;5054018;28;20064;-77
2022/01/31 05:07:08;;;;;;;10.95;2.17;;;6.00;99.90;;;;;;5052800;28;20055;-77
2022/01/31 05:09:34;;;;;;;9.57;2.40;;;5.20;99.90;;;;;;5051736;28;20025;-77
2022/01/31 05:11:59;;;;;;;10.05;2.30;;;5.40;99.90;;;;;;5052418;28;20485;-77
2022/01/31 05:14:25;;;;;;;10.93;2.10;;;5.30;99.90;;;;;;5053944;28;20384;-77
2022/01/31 05:16:51;;;;;;;7.43;2.08;;;5.30;99.90;;;;;;5052799;28;20036;-78
2022/01/31 05:19:17;;;;;;;12.15;2.85;;;6.60;99.90;;;;;;5051413;28;20149;-77
2022/01/31 05:21:42;;;;;;;9.45;2.30;;;5.40;99.90;;;;;;5053749;28;20503;-77
2022/01/31 05:24:08;;;;;;;7.07;2.53;;;5.40;99.90;;;;;;5052876;28;20497;-77
2022/01/31 05:26:34;;;;;;;6.45;1.75;;;5.50;99.90;;;;;;5053670;28;20021;-77
2022/01/31 05:29:00;;;;;;;11.20;2.70;;;5.40;99.90;;;;;;5052810;28;20044;-78
2022/01/31 05:31:26;;;;;;;7.85;1.85;;;6.80;99.90;;;;;;5053364;28;20025;-77
2022/01/31 05:33:51;;;;;;;7.32;2.53;;;6.80;99.90;;;;;;5053593;28;20033;-78
2022/01/31 05:36:17;;;;;;;11.48;2.10;;;5.90;99.90;;;;;;5035657;28;20035;-78
2022/01/31 05:38:44;;;;;;;8.90;2.53;;;6.90;99.90;;;;;;5052567;28;20032;-77
2022/01/31 05:41:17;;;;;;;11.77;2.35;;;5.60;99.90;;;;;;5072355;23;20041;-75
2022/01/31 05:43:43;;;;;;;9.07;2.90;;;7.30;99.90;;;;;;5053330;28;20489;-75
2022/01/31 05:46:08;;;;;;;9.68;2.08;;;5.50;99.90;;;;;;5053286;28;20041;-76
2022/01/31 05:48:34;;;;;;;6.88;3.00;;;5.30;99.90;;;;;;5052795;28;20028;-76
2022/01/31 05:51:02;;;;;;;11.50;2.55;;;5.30;99.90;;;;;;5039120;28;20487;-75
2022/01/31 05:53:28;;;;;;;12.05;3.67;;;5.40;99.90;;;;;;5033269;28;20032;-76
2022/01/31 05:55:53;;;;;;;12.52;3.00;;;6.00;99.90;;;;;;5031781;28;20456;-75
2022/01/31 05:58:19;;;;;;;9.13;2.17;;;5.20;99.90;;;;;;5033320;28;20100;-78
2022/01/31 06:00:44;;;;;;;8.88;2.55;;;5.10;99.90;;;;;;5032591;28;20037;-78
2022/01/31 06:03:10;;;;;;;8.77;2.65;;;4.90;99.90;;;;;;5052151;28;20032;-76
2022/01/31 06:05:36;;;;;;;12.25;2.80;;;5.00;99.90;;;;;;5052716;28;20032;-75
2022/01/31 06:08:01;;;;;;;8.25;2.20;;;4.70;99.90;;;;;;5051491;28;20040;-75
2022/01/31 06:10:27;;;;;;;8.68;2.60;;;4.70;99.90;;;;;;5051610;28;20035;-75
2022/01/31 06:12:53;;;;;;;5.70;2.00;;;4.70;99.90;;;;;;5052889;28;20029;-76
2022/01/31 06:15:19;;;;;;;13.43;2.90;;;4.50;99.90;;;;;;5052952;28;20489;-75
2022/01/31 06:17:44;;;;;;;6.95;2.83;;;4.80;99.90;;;;;;5050697;28;20068;-74
2022/01/31 06:20:10;;;;;;;10.63;2.72;;;4.50;99.90;;;;;;5041265;28;20070;-75
2022/01/31 06:22:47;;;;;;;15.07;2.83;;;4.50;99.90;;;;;;5022593;28;20026;-75
2022/01/31 06:25:13;;;;;;;16.60;2.92;;;4.50;99.90;;;;;;5040505;28;20026;-74
2022/01/31 06:27:39;;;;;;;12.80;3.03;;;4.40;99.90;;;;;;5044895;28;20028;-76
2022/01/31 06:30:05;;;;;;;10.40;3.17;;;4.30;99.90;;;;;;5039059;28;20079;-76
2022/01/31 06:32:31;;;;;;;14.38;3.40;;;4.40;99.90;;;;;;5038479;28;20024;-76
2022/01/31 06:34:57;;;;;;;8.05;2.92;;;4.40;99.90;;;;;;5042256;28;20178;-75
2022/01/31 06:37:22;;;;;;;10.77;3.05;;;4.40;99.90;;;;;;5039696;28;20030;-76
2022/01/31 06:39:48;;;;;;;8.68;2.75;;;4.30;99.90;;;;;;5041226;28;20041;-76
2022/01/31 06:42:15;;;;;;;12.85;2.85;;;4.40;99.90;;;;;;5051917;28;20045;-76
2022/01/31 06:44:40;;;;;;;11.27;3.70;;;4.30;99.90;;;;;;5050727;28;20037;-75
2022/01/31 06:47:06;;;;;;;9.65;3.10;;;5.70;99.90;;;;;;5048099;28;20090;-76
2022/01/31 06:49:32;;;;;;;11.00;3.35;;;4.20;99.90;;;;;;5037691;28;20458;-76
2022/01/31 06:51:57;;;;;;;15.70;2.75;;;3.90;99.90;;;;;;5033805;28;20472;-75
2022/01/31 06:54:23;;;;;;;9.13;3.17;;;4.40;99.90;;;;;;5032149;28;20100;-74
2022/01/31 06:56:48;;;;;;;6.97;2.70;;;4.10;99.90;;;;;;5031581;28;20482;-75
2022/01/31 06:59:14;;;;;;;16.20;3.00;;;4.30;99.90;;;;;;5047787;28;20547;-79
2022/01/31 07:01:40;;;;;;;6.65;2.97;;;4.20;99.90;;;;;;5032713;28;20025;-76
2022/01/31 07:04:05;;;;;;;11.50;3.25;;;4.30;99.90;;;;;;5031652;28;20029;-76
2022/01/31 07:06:31;;;;;;;7.18;2.97;;;4.70;99.90;;;;;;5034968;28;20040;-75
2022/01/31 07:08:59;;;;;;;16.95;4.13;;;4.10;99.90;;;;;;5050697;28;20025;-76
2022/01/31 07:11:27;;;;;;;13.35;3.58;;;4.10;99.90;;;;;;5042914;28;20025;-75
2022/01/31 07:14:29;;;;;;;9.70;3.42;;;4.10;99.90;;;;;;5031906;28;20075;-76
2022/01/31 07:16:50;;;;;;;11.32;3.63;;;4.10;99.90;;;;;;5047682;28;20445;-76
2022/01/31 07:19:17;;;;;;;13.23;3.80;;;4.10;99.90;;;;;;5047646;28;20025;-77
2022/01/31 07:21:49;;;;;;;14.38;5.15;;;4.30;99.90;;;;;;5053638;28;20040;-77
2022/01/31 07:24:23;;;;;;;8.27;4.00;;;4.00;99.90;;;;;;5052673;28;20033;-79
2022/01/31 07:26:50;;;;;;;9.23;3.70;;;4.40;99.90;;;;;;5065780;28;20071;-77
2022/01/31 07:29:17;;;;;;;8.70;3.53;;;5.00;99.90;;;;;;5069146;28;20080;-79
2022/01/31 07:31:45;;;;;;;13.13;4.00;;;4.20;99.90;;;;;;5053759;28;20168;-75
2022/01/31 07:34:13;;;;;;;11.70;4.22;;;4.70;99.90;;;;;;5049549;28;20010;-75
2022/01/31 07:36:39;;;;;;;15.05;3.67;;;4.20;99.90;;;;;;5032646;28;20394;-78
2022/01/31 07:39:05;;;;;;;12.15;3.90;;;4.20;99.90;;;;;;5031504;28;20037;-77
2022/01/31 07:41:31;;;;;;;10.07;4.38;;;4.00;99.90;;;;;;5039993;28;20033;-77
2022/01/31 07:43:57;;;;;;;14.88;4.50;;;4.10;99.90;;;;;;5047995;28;20060;-77
2022/01/31 07:46:23;;;;;;;14.18;4.65;;;4.20;99.90;;;;;;5046909;28;20029;-77
2022/01/31 07:48:49;;;;;;;13.50;4.45;;;4.20;99.90;;;;;;5050395;28;20025;-77
2022/01/31 07:51:17;;;;;;;14.02;3.80;;;4.10;99.90;;;;;;5051004;28;20021;-76
2022/01/31 07:53:43;;;;;;;8.75;3.42;;;4.10;99.90;;;;;;5051215;28;20052;-77
2022/01/31 07:56:09;;;;;;;6.70;2.80;;;3.40;99.90;;;;;;5048693;28;20642;-77
2022/01/31 07:58:38;;;;;;;7.43;3.75;;;6.20;99.90;;;;;;5050932;28;20040;-77
2022/01/31 08:01:05;;;;;;;8.30;2.97;;;4.30;99.90;;;;;;5051881;28;20413;-77
2022/01/31 08:03:33;;;;;;;10.70;2.78;;;5.50;99.90;;;;;;5052527;28;20060;-76
2022/01/31 08:05:59;;;;;;;6.13;2.65;;;4.30;99.90;;;;;;5051885;28;20110;-77
2022/01/31 08:08:27;;;;;;;7.32;2.47;;;4.90;99.90;;;;;;5051224;28;20068;-75
2022/01/31 08:10:53;;;;;;;7.32;3.05;;;4.20;99.90;;;;;;5054282;28;20029;-78
2022/01/31 08:13:19;;;;;;;7.40;1.92;;;4.50;99.90;;;;;;5050009;28;20044;-76
2022/01/31 08:15:59;;;;;;;3.88;2.33;;;4.50;99.90;;;;;;5052108;28;20558;-78
2022/01/31 08:18:25;;;;;;;8.10;2.10;;;4.60;99.90;;;;;;5047552;28;20464;-77
2022/01/31 08:20:51;;;;;;;5.93;1.90;;;4.50;99.90;;;;;;5051652;28;20033;-77
2022/01/31 08:23:16;;;;;;;5.78;2.85;;;4.40;99.90;;;;;;5050828;28;20068;-78
2022/01/31 08:25:47;;;;;;;4.25;2.00;;;4.40;99.90;;;;;;5056453;28;20369;-78
2022/01/31 08:28:13;;;;;;;7.65;2.97;;;4.40;99.90;;;;;;5057221;28;20100;-77
2022/01/31 08:30:49;;;;;;;6.15;2.05;;;4.50;99.90;;;;;;5054757;28;20033;-77
2022/01/31 08:33:32;;;;;;;5.00;2.42;;;4.50;99.90;;;;;;5055619;28;20025;-76
2022/01/31 08:35:58;;;;;;;9.70;2.08;;;4.70;99.90;;;;;;5055360;28;20495;-73
2022/01/31 08:38:24;;;;;;;5.53;1.70;;;4.70;99.90;;;;;;5055054;28;20029;-75
2022/01/31 08:40:49;;;;;;;5.60;1.83;;;4.70;99.90;;;;;;5053771;28;20029;-77
2022/01/31 08:43:17;;;;;;;3.25;1.73;;;4.90;99.90;;;;;;5054283;28;20043;-76
2022/01/31 08:45:43;;;;;;;3.03;1.50;;;4.90;99.90;;;;;;5053362;28;20033;-76
2022/01/31 08:48:09;;;;;;;3.65;1.38;;;6.70;99.90;;;;;;5054083;28;20434;-77
2022/01/31 08:50:35;;;;;;;2.40;1.30;;;5.80;99.90;;;;;;5055575;28;20060;-77
2022/01/31 08:53:01;;;;;;;2.78;1.40;;;5.20;99.90;;;;;;5053869;28;20120;-77
2022/01/31 08:55:27;;;;;;;2.25;1.15;;;5.20;99.90;;;;;;5055999;28;20050;-77
2022/01/31 08:57:55;;;;;;;7.25;1.20;;;6.20;99.90;;;;;;5055219;28;20442;-77
2022/01/31 09:00:32;;;;;;;2.78;1.50;;;5.10;99.90;;;;;;5058726;28;20136;-77
2022/01/31 09:03:20;;;;;;;5.00;1.65;;;5.10;99.90;;;;;;5057920;28;20547;-75
2022/01/31 09:05:45;;;;;;;3.22;1.30;;;5.30;99.90;;;;;;5061275;28;20503;-77
2022/01/31 09:08:11;;;;;;;2.72;1.40;;;5.30;99.90;;;;;;5057667;28;20107;-76
2022/01/31 09:10:37;;;;;;;5.55;1.40;;;5.20;99.90;;;;;;5054550;28;20377;-76
2022/01/31 09:13:02;;;;;;;4.28;1.60;;;5.10;99.90;;;;;;5055071;28;20029;-77
2022/01/31 09:15:28;;;;;;;4.05;1.33;;;5.20;99.90;;;;;;5056032;28;20028;-77
2022/01/31 09:17:54;;;;;;;3.47;1.63;;;6.50;99.90;;;;;;5050690;28;20020;-79
2022/01/31 09:20:20;;;;;;;4.05;1.55;;;5.20;99.90;;;;;;5036135;28;20048;-77
2022/01/31 09:22:45;;;;;;;4.78;1.50;;;5.30;99.90;;;;;;5056456;28;20025;-78
2022/01/31 09:25:12;;;;;;;2.10;1.50;;;5.30;99.90;;;;;;5057492;28;20041;-77
2022/01/31 09:27:38;;;;;;;3.05;1.23;;;6.60;99.90;;;;;;5056830;28;20025;-80
2022/01/31 09:30:06;;;;;;;4.15;1.42;;;5.50;99.90;;;;;;5057198;28;20025;-79
2022/01/31 09:32:32;;;;;;;5.63;1.50;;;5.40;99.90;;;;;;5060542;28;20013;-78
2022/01/31 09:34:58;;;;;;;7.50;1.77;;;5.80;99.90;;;;;;5056816;28;20044;-78
2022/01/31 09:37:24;;;;;;;6.60;1.58;;;5.30;99.90;;;;;;5055821;28;20397;-78
2022/01/31 09:39:50;;;;;;;4.53;1.77;;;5.70;99.90;;;;;;5055867;28;20060;-78
2022/01/31 09:42:28;;;;;;;3.25;1.95;;;5.70;99.90;;;;;;5055147;28;20106;-77
2022/01/31 09:50:12;;;;;;;3.85;1.52;;;6.50;99.90;;;;;;5045924;28;20043;-76
2022/01/31 09:52:37;;;;;;;3.58;1.50;;;5.60;99.90;;;;;;5052096;28;20025;-78
2022/01/31 09:55:04;;;;;;;7.22;1.70;;;6.50;99.90;;;;;;5053499;28;20051;-76
2022/01/31 09:57:30;;;;;;;6.20;1.40;;;5.80;99.90;;;;;;5052970;28;20112;-80
2022/01/31 09:59:56;;;;;;;3.28;1.45;;;5.80;99.90;;;;;;5052973;28;20565;-77
2022/01/31 10:02:21;;;;;;;6.45;1.67;;;5.80;99.90;;;;;;5050189;28;20033;-77
2022/01/31 10:04:48;;;;;;;3.90;1.48;;;6.10;99.90;;;;;;5052947;28;20171;-76
2022/01/31 10:07:15;;;;;;;3.60;1.73;;;5.90;99.90;;;;;;5051553;28;20032;-75
2022/01/31 10:09:46;;;;;;;5.30;1.33;;;5.70;99.90;;;;;;5052009;28;20411;-76
2022/01/31 10:16:24;;;;;;;6.32;1.55;;;5.90;99.90;;;;;;5037792;28;20025;-75
2022/01/31 10:17:59;;;;;;;2.55;1.10;;;5.90;99.90;;;;;;5032871;28;20044;-76
2022/01/31 10:20:31;;;;;;;4.32;1.42;;;6.50;99.90;;;;;;5034418;28;20026;-77
2022/01/31 10:23:08;;;;;;;4.78;1.60;;;7.20;99.90;;;;;;5035364;28;20037;-77
2022/01/31 10:25:34;;;;;;;4.57;1.50;;;6.30;99.90;;;;;;5054412;28;20023;-77
2022/01/31 10:28:00;;;;;;;2.92;1.23;;;6.10;99.90;;;;;;5053999;28;20028;-77
2022/01/31 10:30:28;;;;;;;3.08;1.60;;;6.10;99.90;;;;;;5052318;28;20025;-77
2022/01/31 10:32:57;;;;;;;3.90;1.35;;;6.10;99.90;;;;;;5053568;28;20036;-76
2022/01/31 10:35:28;;;;;;;6.18;1.90;;;6.30;99.90;;;;;;5053235;28;20036;-78
2022/01/31 10:38:05;;;;;;;8.25;1.45;;;6.50;99.90;;;;;;5053592;28;20029;-77
2022/01/31 10:54:10;;;;;;;5.13;1.10;;;6.60;99.90;;;;;;5056216;28;20021;-80
2022/01/31 10:56:46;;;;;;;8.07;1.30;;;6.60;99.90;;;;;;5055700;28;20028;-79
2022/01/31 10:59:18;;;;;;;2.33;0.90;;;6.70;99.90;;;;;;5054838;28;20151;-77
2022/01/31 11:01:47;;;;;;;5.43;1.30;;;7.00;99.90;;;;;;5054079;28;20024;-80
2022/01/31 11:04:15;;;;;;;4.45;0.82;;;6.70;99.90;;;;;;5056064;28;20495;-79
2022/01/31 11:06:43;;;;;;;5.05;1.33;;;8.10;99.90;;;;;;5054843;28;20040;-80
2022/01/31 11:09:11;;;;;;;4.00;1.05;;;6.90;99.90;;;;;;5054290;28;20025;-80
2022/01/31 11:11:40;;;;;;;3.55;1.10;;;6.80;99.90;;;;;;5056655;28;20025;-80
2022/01/31 11:14:08;;;;;;;2.03;0.90;;;7.00;99.90;;;;;;5046009;28;20033;-79
2022/01/31 11:16:34;;;;;;;3.20;0.90;;;6.90;99.90;;;;;;5060109;28;20374;-80
2022/01/31 11:19:06;;;;;;;3.90;1.15;;;6.80;99.90;;;;;;5048505;28;20032;-78
2022/01/31 11:21:34;;;;;;;3.87;1.10;;;6.90;99.90;;;;;;5063924;28;20087;-77
2022/01/31 11:24:03;;;;;;;4.32;1.10;;;6.90;99.90;;;;;;5054986;28;20036;-78
2022/01/31 11:26:36;;;;;;;4.70;1.10;;;6.90;99.90;;;;;;5057475;28;20032;-78
2022/01/31 11:29:03;;;;;;;2.45;0.70;;;7.30;99.90;;;;;;5058135;28;20032;-78
2022/01/31 11:31:29;;;;;;;5.97;0.85;;;8.30;99.90;;;;;;5056336;28;20064;-79
2022/01/31 11:33:58;;;;;;;3.80;1.48;;;8.00;99.90;;;;;;5053245;28;20061;-76
2022/01/31 11:36:24;;;;;;;4.15;1.13;;;8.20;99.90;;;;;;5053598;28;20033;-77
2022/01/31 11:38:51;;;;;;;6.57;0.90;;;6.90;99.90;;;;;;5054270;28;20040;-77
2022/01/31 11:41:18;;;;;;;4.75;1.50;;;7.00;99.90;;;;;;5055456;28;20663;-77
2022/01/31 11:43:58;;;;;;;4.60;1.67;;;7.10;99.90;;;;;;5050970;28;20033;-77
2022/01/31 11:46:24;;;;;;;5.20;1.00;;;7.20;99.90;;;;;;5053486;28;20029;-78
2022/01/31 11:48:52;;;;;;;6.43;0.98;;;7.70;99.90;;;;;;5053297;28;20021;-78
2022/01/31 11:51:19;;;;;;;6.40;0.80;;;7.00;99.90;;;;;;5051756;28;20025;-77
2022/01/31 11:53:45;;;;;;;4.28;0.70;;;6.80;99.90;;;;;;5051512;28;20040;-77
2022/01/31 11:56:17;;;;;;;2.20;0.80;;;7.00;99.90;;;;;;5050254;28;20061;-77
2022/01/31 11:58:51;;;;;;;3.97;0.80;;;7.30;99.90;;;;;;5053193;28;20025;-78
2022/01/31 12:01:21;;;;;;;3.28;0.70;;;7.00;99.90;;;;;;5052471;28;20393;-78
2022/01/31 12:03:56;;;;;;;4.95;0.55;;;7.00;99.90;;;;;;5051521;28;20025;-78
2022/01/31 12:06:24;;;;;;;5.03;0.70;;;7.30;99.90;;;;;;5051518;28;20033;-77
2022/01/31 12:08:52;;;;;;;3.47;0.98;;;7.10;99.90;;;;;;5050690;28;20040;-79
2022/01/31 12:11:24;;;;;;;3.88;0.73;;;7.50;99.90;;;;;;5051339;28;20025;-77
2022/01/31 12:13:56;;;;;;;5.85;1.10;;;7.20;99.90;;;;;;5039361;28;20033;-78
2022/01/31 12:22:03;;;;;;;2.22;0.63;;;7.30;99.90;;;;;;5048161;28;20485;-77
2022/01/31 12:24:30;;;;;;;3.75;0.73;;;7.30;99.90;;;;;;5046439;28;20025;-78
2022/01/31 12:27:05;;;;;;;2.58;0.70;;;9.10;99.90;;;;;;5034753;28;20022;-80
2022/01/31 12:29:33;;;;;;;3.47;0.82;;;7.20;99.90;;;;;;5027466;28;20022;-78
2022/01/31 12:32:23;;;;;;;1.52;0.60;;;8.10;99.90;;;;;;5033207;28;20021;-78
2022/01/31 12:34:58;;;;;;;1.92;0.70;;;7.40;99.90;;;;;;5051082;28;20021;-81
2022/01/31 12:37:32;;;;;;;4.10;0.77;;;8.00;99.90;;;;;;5051312;28;20037;-78
2022/01/31 12:40:05;;;;;;;4.53;0.70;;;8.60;99.90;;;;;;5050607;28;20489;-78
2022/01/31 12:43:08;;;;;;;8.57;1.10;;;7.00;99.90;;;;;;5050416;28;20028;-77
2022/01/31 12:45:37;;;;;;;2.33;0.50;;;7.00;99.90;;;;;;5050688;28;20211;-77
2022/01/31 12:48:09;;;;;;;2.38;0.68;;;7.30;99.90;;;;;;5050504;28;20045;-77
2022/01/31 12:50:36;;;;;;;3.40;0.85;;;7.90;99.90;;;;;;5049709;28;20029;-78
2022/01/31 12:53:06;;;;;;;6.05;1.40;;;7.10;99.90;;;;;;5031670;28;20429;-78
2022/01/31 12:55:35;;;;;;;4.03;0.50;;;9.10;99.90;;;;;;5029711;28;20037;-78
2022/01/31 12:58:01;;;;;;;3.17;0.75;;;9.10;99.90;;;;;;5030132;28;20022;-78
2022/01/31 13:00:41;;;;;;;2.50;0.80;;;7.20;99.90;;;;;;5029808;28;20029;-79
2022/01/31 13:03:08;;;;;;;2.92;0.77;;;8.10;99.90;;;;;;5049493;28;20516;-78
2022/01/31 13:05:39;;;;;;;3.42;0.70;;;7.40;99.90;;;;;;5050609;28;20099;-78
2022/01/31 13:08:21;;;;;;;6.50;0.77;;;7.90;99.90;;;;;;5050158;28;20029;-77
2022/01/31 13:10:47;;;;;;;2.92;0.82;;;7.40;99.90;;;;;;5031718;28;20120;-77
2022/01/31 13:13:13;;;;;;;2.33;0.70;;;7.40;99.90;;;;;;5043973;28;20129;-78
2022/01/31 13:15:39;;;;;;;3.33;0.88;;;7.50;99.90;;;;;;5031506;28;20026;-80
2022/01/31 13:18:06;;;;;;;3.97;0.77;;;6.90;99.90;;;;;;5041117;28;20021;-79
2022/01/31 13:20:33;;;;;;;2.63;1.13;;;7.70;99.90;;;;;;5051381;28;20049;-79
2022/01/31 13:23:00;;;;;;;4.65;0.82;;;9.00;99.90;;;;;;5030522;28;20025;-76
2022/01/31 13:25:27;;;;;;;2.50;0.60;;;9.20;99.90;;;;;;5045131;28;20071;-78